Time;durP1;ratioP1;P1;durP2;ratioP2;P2;SDS_P1;SDS_P2;PMS_P1;PMS_P2;Temp;Humidity;BMP_temperature;BMP_pressure;BME280_temperature;BME280_humidity;BME280_pressure;Samples;Min_cycle;Max_cycle;Signal;HPM_P1;HPM_P2
2022/07/17 00:01:25;;;;;;;1.77;0.80;;;20.90;96.10;;;;;;4954581;28;20709;-69
2022/07/17 00:03:52;;;;;;;0.60;0.60;;;21.10;97.30;;;;;;4954467;28;20186;-68
2022/07/17 00:06:20;;;;;;;0.97;0.70;;;21.00;94.30;;;;;;4954569;28;20191;-68
2022/07/17 00:08:47;;;;;;;2.10;0.93;;;20.50;93.20;;;;;;4961220;28;20219;-68
2022/07/17 00:11:14;;;;;;;4.63;0.77;;;20.60;97.60;;;;;;4954147;28;20677;-68
2022/07/17 00:13:42;;;;;;;4.60;1.10;;;21.20;95.80;;;;;;4957828;28;20183;-69
2022/07/17 00:16:09;;;;;;;2.67;0.50;;;21.50;91.90;;;;;;4971342;28;21115;-68
2022/07/17 00:18:36;;;;;;;0.80;0.70;;;21.10;91.80;;;;;;4954464;29;20170;-70
2022/07/17 00:21:04;;;;;;;1.53;0.80;;;21.10;91.50;;;;;;4953133;29;20239;-70
2022/07/17 00:23:31;;;;;;;2.30;0.80;;;21.00;90.40;;;;;;4953505;28;20729;-70
2022/07/17 00:25:58;;;;;;;2.60;0.80;;;21.20;93.00;;;;;;4954033;28;20267;-70
2022/07/17 00:28:26;;;;;;;1.97;0.70;;;20.70;89.50;;;;;;4972066;28;20592;-70
2022/07/17 00:30:53;;;;;;;1.37;0.73;;;21.40;91.40;;;;;;4973093;28;20210;-69
2022/07/17 00:33:20;;;;;;;3.97;0.87;;;21.90;85.50;;;;;;4973311;28;20179;-70
2022/07/17 00:35:48;;;;;;;1.23;0.50;;;22.10;81.90;;;;;;4967686;28;20282;-69
2022/07/17 00:38:15;;;;;;;1.53;0.93;;;22.10;83.10;;;;;;4971115;28;20241;-69
2022/07/17 00:40:43;;;;;;;1.27;0.70;;;21.80;84.70;;;;;;4973119;28;20308;-69
2022/07/17 00:43:13;;;;;;;1.77;0.60;;;21.30;81.40;;;;;;4973126;28;20728;-69
2022/07/17 00:45:41;;;;;;;1.50;0.80;;;21.60;88.40;;;;;;4973308;28;20284;-68
2022/07/17 00:48:11;;;;;;;3.53;0.57;;;21.60;83.80;;;;;;4955939;28;20215;-68
2022/07/17 00:50:41;;;;;;;1.37;0.97;;;21.90;80.00;;;;;;4953708;28;20586;-69
2022/07/17 00:53:10;;;;;;;4.83;0.93;;;22.00;78.30;;;;;;4953940;28;20184;-69
2022/07/17 00:55:39;;;;;;;0.87;0.60;;;22.20;78.00;;;;;;4965813;28;20195;-69
2022/07/17 00:58:10;;;;;;;1.13;0.60;;;21.70;76.80;;;;;;4960387;28;20202;-69
2022/07/17 01:00:37;;;;;;;0.73;0.70;;;22.10;85.10;;;;;;4954568;28;20279;-69
2022/07/17 01:03:04;;;;;;;2.53;0.60;;;21.90;74.50;;;;;;4954148;28;20232;-69
2022/07/17 01:05:32;;;;;;;1.40;0.70;;;21.90;75.50;;;;;;4954671;28;20300;-69
2022/07/17 01:07:59;;;;;;;2.70;0.60;;;22.20;74.40;;;;;;4972988;28;20218;-69
2022/07/17 01:10:26;;;;;;;2.40;0.93;;;22.30;77.50;;;;;;4973235;28;20674;-70
2022/07/17 01:12:54;;;;;;;0.97;0.67;;;22.80;74.90;;;;;;4958475;28;20546;-69
2022/07/17 01:15:23;;;;;;;1.03;0.70;;;22.80;75.90;;;;;;4952537;28;20190;-69
2022/07/17 01:17:52;;;;;;;2.63;0.53;;;23.20;72.50;;;;;;4953639;28;20668;-69
2022/07/17 01:20:19;;;;;;;4.00;1.00;;;23.70;69.90;;;;;;4953509;28;20184;-69
2022/07/17 01:22:49;;;;;;;1.73;0.53;;;23.50;74.20;;;;;;4952331;28;20242;-71
2022/07/17 01:25:21;;;;;;;2.93;0.80;;;23.70;69.80;;;;;;4953598;28;20677;-69
2022/07/17 01:27:49;;;;;;;2.77;0.90;;;24.20;70.50;;;;;;4953679;28;20207;-69
2022/07/17 01:30:16;;;;;;;0.87;0.57;;;24.00;67.20;;;;;;4953386;28;20184;-70
2022/07/17 01:32:44;;;;;;;5.03;0.80;;;24.20;67.30;;;;;;4955701;28;20192;-69
2022/07/17 01:35:14;;;;;;;1.23;0.50;;;24.70;66.70;;;;;;4970737;28;20191;-70
2022/07/17 01:37:43;;;;;;;0.80;0.60;;;25.10;61.90;;;;;;4976545;28;20179;-70
2022/07/17 01:40:13;;;;;;;2.00;0.83;;;25.30;57.70;;;;;;4972875;28;20932;-70
2022/07/17 01:42:45;;;;;;;2.90;0.67;;;25.00;59.40;;;;;;4958118;28;20315;-70
2022/07/17 01:45:13;;;;;;;1.10;0.57;;;24.80;62.30;;;;;;4958223;28;20196;-70
2022/07/17 01:47:42;;;;;;;0.43;0.30;;;25.20;58.40;;;;;;4957440;28;20184;-70
2022/07/17 01:50:11;;;;;;;1.60;0.73;;;25.30;53.40;;;;;;4956729;29;20618;-70
2022/07/17 01:52:40;;;;;;;4.03;0.60;;;25.20;49.80;;;;;;4956943;28;20192;-69
2022/07/17 01:55:09;;;;;;;9.80;0.60;;;25.20;46.50;;;;;;4976229;28;20266;-69
2022/07/17 01:57:37;;;;;;;5.83;0.60;;;24.70;43.10;;;;;;4975745;28;20664;-70
2022/07/17 02:00:11;;;;;;;4.20;0.57;;;24.10;43.30;;;;;;4975725;28;20199;-69
2022/07/17 02:02:38;;;;;;;2.90;0.40;;;24.00;43.00;;;;;;4976156;28;20179;-69
2022/07/17 02:05:05;;;;;;;4.40;0.57;;;23.80;39.80;;;;;;4974444;28;20180;-69
2022/07/17 02:07:34;;;;;;;1.77;0.50;;;23.90;42.20;;;;;;4968440;28;20278;-69
2022/07/17 02:10:02;;;;;;;2.30;0.40;;;23.80;41.60;;;;;;4956328;28;20195;-69
2022/07/17 02:12:29;;;;;;;1.20;0.50;;;24.00;43.50;;;;;;4956418;28;20689;-69
2022/07/17 02:14:56;;;;;;;6.30;0.50;;;24.00;41.90;;;;;;4956603;29;20179;-69
2022/07/17 02:17:24;;;;;;;1.03;0.40;;;23.80;41.20;;;;;;4959629;28;20175;-69
2022/07/17 02:19:51;;;;;;;1.67;0.70;;;23.80;41.20;;;;;;4975790;28;20210;-69
2022/07/17 02:22:18;;;;;;;1.10;0.70;;;24.00;42.00;;;;;;4974856;28;20179;-69
2022/07/17 02:24:45;;;;;;;2.47;0.60;;;24.10;41.30;;;;;;4975560;28;20183;-69
2022/07/17 02:27:13;;;;;;;2.60;0.60;;;24.10;41.20;;;;;;4973780;28;20187;-69
2022/07/17 02:29:40;;;;;;;1.60;0.70;;;24.20;42.00;;;;;;4954929;28;20522;-69
2022/07/17 02:32:07;;;;;;;3.20;0.50;;;24.30;42.00;;;;;;4956055;29;20754;-69
2022/07/17 02:34:35;;;;;;;1.87;0.70;;;24.40;41.90;;;;;;4971974;28;20194;-70
2022/07/17 02:37:02;;;;;;;1.80;0.50;;;24.50;41.50;;;;;;4968220;28;20582;-67
2022/07/17 02:39:30;;;;;;;3.43;0.50;;;24.10;40.30;;;;;;4956057;28;20611;-67
2022/07/17 02:41:57;;;;;;;0.53;0.53;;;23.80;40.20;;;;;;4955862;29;20188;-68
2022/07/17 02:44:25;;;;;;;2.70;0.60;;;24.00;40.40;;;;;;4955880;29;20180;-67
2022/07/17 02:46:52;;;;;;;4.13;0.47;;;24.20;41.60;;;;;;4955425;28;20191;-67
2022/07/17 02:49:19;;;;;;;4.50;0.60;;;23.90;38.00;;;;;;4955851;29;20212;-68
2022/07/17 02:51:46;;;;;;;6.40;0.50;;;24.10;39.60;;;;;;4955702;29;20270;-67
2022/07/17 02:54:14;;;;;;;0.87;0.50;;;23.40;37.70;;;;;;4955780;29;20274;-67
2022/07/17 02:56:41;;;;;;;3.07;0.70;;;23.20;37.60;;;;;;4955941;29;20205;-67
2022/07/17 02:59:08;;;;;;;4.33;0.70;;;23.40;40.10;;;;;;4955789;29;20649;-67
2022/07/17 03:01:36;;;;;;;0.30;0.30;;;23.10;38.40;;;;;;4955685;29;20636;-68
2022/07/17 03:04:03;;;;;;;0.43;0.40;;;22.90;40.00;;;;;;4955536;29;20594;-68
2022/07/17 03:06:30;;;;;;;1.77;0.50;;;23.00;38.00;;;;;;4955624;29;20234;-67
2022/07/17 03:08:57;;;;;;;0.87;0.50;;;23.20;37.40;;;;;;4955510;29;20589;-68
2022/07/17 03:11:25;;;;;;;1.07;0.50;;;23.50;36.80;;;;;;4955342;29;20582;-68
2022/07/17 03:13:52;;;;;;;2.00;0.53;;;23.70;36.70;;;;;;4955498;29;20182;-68
2022/07/17 03:16:19;;;;;;;1.93;0.50;;;23.00;35.60;;;;;;4955409;29;20210;-68
2022/07/17 03:18:47;;;;;;;2.77;0.47;;;22.90;35.20;;;;;;4955285;29;20180;-67
2022/07/17 03:21:14;;;;;;;1.23;0.40;;;22.60;35.40;;;;;;4955256;29;20179;-68
2022/07/17 03:23:41;;;;;;;1.50;0.50;;;22.80;34.90;;;;;;4955046;29;20255;-68
2022/07/17 03:26:08;;;;;;;1.00;0.60;;;23.00;35.80;;;;;;4955127;29;20187;-67
2022/07/17 03:28:36;;;;;;;0.30;0.30;;;22.80;34.00;;;;;;4954842;29;20566;-67
2022/07/17 03:31:03;;;;;;;1.70;0.60;;;22.80;33.80;;;;;;4954624;28;20205;-68
2022/07/17 03:33:30;;;;;;;4.13;0.53;;;22.80;32.80;;;;;;4955026;29;20238;-68
2022/07/17 03:35:58;;;;;;;2.40;0.57;;;22.60;31.40;;;;;;4954836;29;20582;-68
2022/07/17 03:38:25;;;;;;;2.10;0.53;;;22.50;32.60;;;;;;4954832;29;20172;-68
2022/07/17 03:40:52;;;;;;;3.70;1.07;;;22.70;33.90;;;;;;4954865;29;20187;-68
2022/07/17 03:43:20;;;;;;;0.77;0.40;;;22.90;33.70;;;;;;4954847;29;20215;-67
2022/07/17 03:45:47;;;;;;;0.57;0.50;;;23.00;33.20;;;;;;4954652;29;20180;-67
2022/07/17 03:48:14;;;;;;;2.67;0.40;;;23.30;33.70;;;;;;4954499;29;20180;-67
2022/07/17 03:50:42;;;;;;;2.30;0.47;;;22.90;31.50;;;;;;4954166;29;20302;-67
2022/07/17 03:53:09;;;;;;;2.50;0.40;;;22.60;32.20;;;;;;4954299;29;20554;-69
2022/07/17 03:55:37;;;;;;;0.97;0.43;;;22.90;33.30;;;;;;4954778;28;20180;-67
2022/07/17 03:58:04;;;;;;;0.30;0.30;;;22.90;33.30;;;;;;4953293;28;20191;-67
2022/07/17 04:00:31;;;;;;;3.33;0.50;;;22.90;33.20;;;;;;4954418;29;20183;-68
2022/07/17 04:02:59;;;;;;;1.70;0.53;;;22.50;31.50;;;;;;4954296;29;20384;-67
2022/07/17 04:05:26;;;;;;;2.17;0.50;;;22.40;32.10;;;;;;4954208;28;20198;-67
2022/07/17 04:07:53;;;;;;;1.10;0.40;;;22.10;32.80;;;;;;4954145;29;20175;-67
2022/07/17 04:10:21;;;;;;;0.60;0.50;;;22.20;33.30;;;;;;4953613;29;20176;-67
2022/07/17 04:12:48;;;;;;;1.30;0.70;;;22.40;33.00;;;;;;4954134;29;20188;-67
2022/07/17 04:15:48;;;;;;;3.17;0.50;;;22.50;33.70;;;;;;4954024;28;20188;-67
2022/07/17 04:18:02;;;;;;;0.77;0.47;;;22.40;32.30;;;;;;4953759;28;20230;-67
2022/07/17 04:20:30;;;;;;;0.50;0.50;;;22.30;33.70;;;;;;4953858;29;20273;-68
2022/07/17 04:22:59;;;;;;;3.30;0.77;;;22.60;33.30;;;;;;4953789;29;20246;-67
2022/07/17 04:25:26;;;;;;;1.83;0.60;;;22.70;32.50;;;;;;4953883;29;20218;-67
2022/07/17 04:27:53;;;;;;;0.67;0.47;;;22.90;33.60;;;;;;4953871;29;20179;-67
2022/07/17 04:30:20;;;;;;;1.90;0.60;;;22.80;32.20;;;;;;4953537;29;20203;-67
2022/07/17 04:32:48;;;;;;;0.97;0.50;;;22.90;33.80;;;;;;4953850;29;20207;-67
2022/07/17 04:35:15;;;;;;;1.40;0.50;;;22.70;32.50;;;;;;4953758;28;20745;-68
2022/07/17 04:37:43;;;;;;;0.73;0.70;;;22.60;33.00;;;;;;4953755;29;20206;-67
2022/07/17 04:40:11;;;;;;;0.93;0.43;;;22.40;32.00;;;;;;4953522;29;20228;-67
2022/07/17 04:42:39;;;;;;;1.03;0.40;;;22.50;34.60;;;;;;4953515;28;20242;-67
2022/07/17 04:45:07;;;;;;;4.60;0.53;;;22.50;33.10;;;;;;4953682;29;20180;-68
2022/07/17 04:47:35;;;;;;;0.50;0.47;;;22.40;32.00;;;;;;4963096;28;20286;-67
2022/07/17 04:50:03;;;;;;;2.87;0.63;;;22.40;32.50;;;;;;4960066;28;20869;-66
2022/07/17 04:52:30;;;;;;;0.87;0.60;;;22.40;30.30;;;;;;4959721;28;20226;-67
2022/07/17 04:54:58;;;;;;;1.00;0.67;;;22.40;31.70;;;;;;4953479;29;20175;-68
2022/07/17 04:57:25;;;;;;;2.87;1.00;;;22.50;32.00;;;;;;4959842;28;20188;-67
2022/07/17 04:59:53;;;;;;;2.83;0.73;;;22.30;30.30;;;;;;4972745;28;20182;-67
2022/07/17 05:02:20;;;;;;;0.50;0.50;;;22.10;29.20;;;;;;4968353;28;20511;-67
2022/07/17 05:04:48;;;;;;;2.83;0.60;;;22.00;29.90;;;;;;4957390;28;20188;-67
2022/07/17 05:07:15;;;;;;;0.90;0.70;;;22.00;28.70;;;;;;4968984;28;20218;-67
2022/07/17 05:09:43;;;;;;;1.93;0.53;;;22.00;29.60;;;;;;4968945;28;20294;-69
2022/07/17 05:12:10;;;;;;;2.93;0.53;;;21.90;28.60;;;;;;4974484;28;20253;-67
2022/07/17 05:14:37;;;;;;;2.73;0.50;;;21.90;29.60;;;;;;4976788;28;20629;-67
2022/07/17 05:17:05;;;;;;;0.90;0.60;;;21.70;28.80;;;;;;4975723;28;20345;-67
2022/07/17 05:19:32;;;;;;;2.13;0.70;;;21.80;29.00;;;;;;4967978;28;20266;-68
2022/07/17 05:22:00;;;;;;;0.60;0.50;;;21.80;28.30;;;;;;4962191;28;20205;-68
2022/07/17 05:24:27;;;;;;;2.63;0.60;;;21.90;28.50;;;;;;4957206;29;20184;-68
2022/07/17 05:26:55;;;;;;;2.57;0.50;;;21.70;28.70;;;;;;4957235;29;20179;-68
2022/07/17 05:29:22;;;;;;;0.70;0.70;;;21.50;27.50;;;;;;4957230;28;20222;-68
2022/07/17 05:31:50;;;;;;;0.40;0.40;;;21.10;28.30;;;;;;4956793;29;20706;-68
2022/07/17 05:34:17;;;;;;;2.43;1.13;;;21.20;28.40;;;;;;4957611;28;20190;-68
2022/07/17 05:36:45;;;;;;;0.73;0.50;;;21.00;29.00;;;;;;4961375;28;20275;-67
2022/07/17 05:39:13;;;;;;;0.57;0.57;;;20.60;27.90;;;;;;4966969;28;20241;-67
2022/07/17 05:41:40;;;;;;;2.10;0.50;;;20.50;28.20;;;;;;4976181;28;20180;-67
2022/07/17 05:44:08;;;;;;;1.07;0.50;;;20.40;28.70;;;;;;4976227;28;20176;-67
2022/07/17 05:46:35;;;;;;;0.40;0.40;;;20.30;28.20;;;;;;4976246;28;20640;-68
2022/07/17 05:49:06;;;;;;;1.10;0.60;;;20.20;28.70;;;;;;4975858;28;20186;-69
2022/07/17 05:51:33;;;;;;;2.20;0.70;;;20.10;28.50;;;;;;4975876;28;20238;-67
2022/07/17 05:54:00;;;;;;;2.33;0.57;;;20.00;29.00;;;;;;4976065;28;20503;-67
2022/07/17 05:56:28;;;;;;;0.60;0.50;;;19.90;29.50;;;;;;4969603;28;20241;-68
2022/07/17 05:58:55;;;;;;;1.53;0.47;;;19.80;29.40;;;;;;4959471;28;20548;-68
2022/07/17 06:01:22;;;;;;;0.60;0.60;;;19.70;29.30;;;;;;4958955;28;20643;-66
2022/07/17 06:03:53;;;;;;;1.20;0.60;;;19.70;29.90;;;;;;4956664;29;20218;-70
2022/07/17 06:06:21;;;;;;;0.50;0.50;;;19.70;29.40;;;;;;4959028;28;20253;-68
2022/07/17 06:08:48;;;;;;;0.90;0.50;;;19.70;29.40;;;;;;4956623;28;20528;-68
2022/07/17 06:11:15;;;;;;;2.30;0.60;;;19.60;29.80;;;;;;4965782;28;20227;-67
2022/07/17 06:13:43;;;;;;;0.83;0.50;;;19.50;30.00;;;;;;4975496;28;20380;-68
2022/07/17 06:16:10;;;;;;;0.80;0.60;;;19.50;30.40;;;;;;4972519;28;20589;-68
2022/07/17 06:18:37;;;;;;;1.40;0.57;;;19.40;30.30;;;;;;4974010;28;20176;-68
2022/07/17 06:21:05;;;;;;;0.50;0.50;;;19.40;31.30;;;;;;4961261;28;20619;-68
2022/07/17 06:23:33;;;;;;;1.07;0.60;;;19.30;31.30;;;;;;4954897;29;20192;-68
2022/07/17 06:26:00;;;;;;;0.80;0.53;;;19.20;31.90;;;;;;4955852;28;20705;-67
2022/07/17 06:28:27;;;;;;;1.33;0.50;;;19.10;31.60;;;;;;4961889;28;20202;-68
2022/07/17 06:30:55;;;;;;;2.00;0.50;;;19.10;32.20;;;;;;4962307;28;20322;-68
2022/07/17 06:33:22;;;;;;;6.80;0.73;;;19.00;32.00;;;;;;4956206;29;20184;-68
2022/07/17 06:35:50;;;;;;;1.00;0.60;;;19.00;32.30;;;;;;4956367;29;20183;-67
2022/07/17 06:38:17;;;;;;;3.17;0.60;;;19.00;32.10;;;;;;4956022;29;20646;-67
2022/07/17 06:40:44;;;;;;;2.73;0.50;;;19.00;32.90;;;;;;4955911;29;20243;-67
2022/07/17 06:43:12;;;;;;;4.43;0.80;;;18.80;33.10;;;;;;4969357;28;20191;-67
2022/07/17 06:45:39;;;;;;;0.93;0.60;;;18.70;33.00;;;;;;4974847;28;20679;-68
2022/07/17 06:48:06;;;;;;;0.73;0.70;;;18.70;34.00;;;;;;4975354;28;20179;-67
2022/07/17 06:50:34;;;;;;;3.97;0.63;;;18.60;33.50;;;;;;4975072;28;20229;-68
2022/07/17 06:53:01;;;;;;;2.27;0.70;;;18.60;33.50;;;;;;4975267;28;20305;-68
2022/07/17 06:55:28;;;;;;;1.20;0.50;;;18.60;33.00;;;;;;4974627;28;20187;-67
2022/07/17 06:57:56;;;;;;;9.10;1.47;;;18.60;33.20;;;;;;4958030;28;20200;-68
2022/07/17 07:00:23;;;;;;;1.07;0.80;;;18.40;34.00;;;;;;4954894;28;20189;-68
2022/07/17 07:02:51;;;;;;;0.60;0.60;;;18.40;34.60;;;;;;4955648;29;20517;-68
2022/07/17 07:05:18;;;;;;;4.23;0.60;;;18.20;35.20;;;;;;4955345;28;20184;-67
2022/07/17 07:07:46;;;;;;;4.80;0.70;;;18.10;35.90;;;;;;4972347;28;20223;-68
2022/07/17 07:10:17;;;;;;;0.87;0.77;;;18.10;35.90;;;;;;4974415;28;20199;-68
2022/07/17 07:12:44;;;;;;;5.97;0.80;;;18.00;36.50;;;;;;4974474;28;20218;-68
2022/07/17 07:15:12;;;;;;;1.07;0.63;;;17.90;36.30;;;;;;4974828;28;20179;-67
2022/07/17 07:17:39;;;;;;;1.23;0.70;;;18.00;35.80;;;;;;4974792;28;20338;-68
2022/07/17 07:20:08;;;;;;;0.90;0.60;;;18.10;35.90;;;;;;4974662;28;20183;-68
2022/07/17 07:22:36;;;;;;;2.70;0.80;;;18.10;35.90;;;;;;4974784;28;20203;-68
2022/07/17 07:25:05;;;;;;;1.50;0.70;;;18.10;36.20;;;;;;4974755;28;20246;-68
2022/07/17 07:27:34;;;;;;;0.80;0.60;;;18.00;36.60;;;;;;4974691;28;20533;-68
2022/07/17 07:30:01;;;;;;;2.00;0.70;;;18.00;36.20;;;;;;4974357;28;20223;-68
2022/07/17 07:32:28;;;;;;;1.23;0.73;;;18.10;36.30;;;;;;4974254;28;20231;-68
2022/07/17 07:34:56;;;;;;;3.00;0.53;;;18.10;36.40;;;;;;4974399;28;20171;-68
2022/07/17 07:37:24;;;;;;;2.40;0.90;;;17.90;37.10;;;;;;4974769;28;20570;-68
2022/07/17 07:39:51;;;;;;;1.47;0.80;;;17.70;37.70;;;;;;4974234;28;20223;-67
2022/07/17 07:42:18;;;;;;;3.00;0.77;;;17.50;38.90;;;;;;4974591;28;20641;-67
2022/07/17 07:44:46;;;;;;;2.33;0.80;;;17.40;40.10;;;;;;4974326;28;20194;-68
2022/07/17 07:47:13;;;;;;;1.13;0.67;;;17.30;40.20;;;;;;4974659;28;20199;-68
2022/07/17 07:49:40;;;;;;;3.60;0.87;;;17.30;40.60;;;;;;4974244;28;20548;-68
2022/07/17 07:52:08;;;;;;;5.37;0.83;;;17.20;41.70;;;;;;4974246;28;20241;-68
2022/07/17 07:54:35;;;;;;;1.23;0.70;;;17.10;42.40;;;;;;4974242;28;20262;-67
2022/07/17 07:57:06;;;;;;;1.40;0.73;;;17.10;42.80;;;;;;4974406;28;20230;-68
2022/07/17 07:59:37;;;;;;;1.43;0.80;;;17.10;43.30;;;;;;4974330;28;20177;-67
2022/07/17 08:02:05;;;;;;;2.97;0.80;;;17.20;43.40;;;;;;4974533;28;20183;-68
2022/07/17 08:04:33;;;;;;;1.70;0.80;;;17.10;44.20;;;;;;4971188;28;20183;-69
2022/07/17 08:07:06;;;;;;;4.50;1.10;;;17.20;43.60;;;;;;4954812;28;20184;-69
2022/07/17 08:09:33;;;;;;;1.90;1.10;;;17.20;43.80;;;;;;4965153;28;20196;-72
2022/07/17 08:12:01;;;;;;;2.10;1.07;;;17.10;44.20;;;;;;4955324;28;20232;-69
2022/07/17 08:14:31;;;;;;;3.77;0.93;;;16.90;45.50;;;;;;4967768;28;20187;-69
2022/07/17 08:16:58;;;;;;;1.00;0.90;;;16.90;46.40;;;;;;4973554;28;20294;-72
2022/07/17 08:19:29;;;;;;;1.53;1.00;;;16.80;47.60;;;;;;4975223;28;20171;-69
2022/07/17 08:21:56;;;;;;;2.90;0.70;;;16.70;47.60;;;;;;4975583;28;20210;-68
2022/07/17 08:24:23;;;;;;;2.40;1.10;;;16.70;47.00;;;;;;4975184;28;20259;-69
2022/07/17 08:26:51;;;;;;;2.97;1.27;;;16.90;46.30;;;;;;4964490;28;20656;-70
2022/07/17 08:29:18;;;;;;;5.47;1.97;;;16.90;46.60;;;;;;4956234;29;20604;-69
2022/07/17 08:31:45;;;;;;;3.43;1.50;;;16.90;47.20;;;;;;4959735;28;20706;-68
2022/07/17 08:34:14;;;;;;;5.23;1.20;;;16.70;49.00;;;;;;4973572;28;20183;-69
2022/07/17 08:36:42;;;;;;;3.13;1.43;;;16.50;50.30;;;;;;4966285;28;20192;-71
2022/07/17 08:39:09;;;;;;;2.67;1.40;;;16.30;50.80;;;;;;4955102;28;20658;-71
2022/07/17 08:41:40;;;;;;;4.07;1.60;;;16.20;52.90;;;;;;4958157;28;20179;-69
2022/07/17 08:44:08;;;;;;;1.93;1.20;;;16.00;55.50;;;;;;4974876;28;20636;-71
2022/07/17 08:46:40;;;;;;;1.70;1.20;;;15.80;57.00;;;;;;4974899;28;20274;-67
2022/07/17 08:49:08;;;;;;;2.33;1.40;;;15.60;59.10;;;;;;4975442;28;20193;-71
2022/07/17 08:51:36;;;;;;;1.53;1.27;;;15.50;62.80;;;;;;4971896;28;20223;-69
2022/07/17 08:54:07;;;;;;;3.53;1.50;;;15.40;69.20;;;;;;4955558;28;20317;-71
2022/07/17 08:56:37;;;;;;;2.57;1.50;;;15.30;73.20;;;;;;4955727;28;20282;-71
2022/07/17 08:59:05;;;;;;;3.43;1.30;;;15.10;77.70;;;;;;4971581;28;20191;-71
2022/07/17 09:01:32;;;;;;;3.30;1.30;;;15.00;82.40;;;;;;4972199;28;20214;-72
2022/07/17 09:04:05;;;;;;;2.97;1.20;;;15.00;80.10;;;;;;4963563;28;20183;-68
2022/07/17 09:06:34;;;;;;;5.27;2.00;;;15.20;78.80;;;;;;4974493;28;20197;-69
2022/07/17 09:09:10;;;;;;;2.33;1.20;;;15.20;82.00;;;;;;4973459;28;20643;-69
2022/07/17 09:11:48;;;;;;;2.97;1.50;;;15.10;83.90;;;;;;4973358;28;20300;-68
2022/07/17 09:14:16;;;;;;;1.70;1.10;;;15.20;82.30;;;;;;4974601;28;20193;-70
2022/07/17 09:17:01;;;;;;;3.67;1.00;;;15.40;79.10;;;;;;4974782;28;20195;-69
2022/07/17 09:19:45;;;;;;;2.97;1.27;;;15.40;79.80;;;;;;4971714;28;20194;-71
2022/07/17 09:22:23;;;;;;;1.10;0.90;;;15.40;80.40;;;;;;4962962;28;20187;-66
2022/07/17 09:24:56;;;;;;;4.53;1.10;;;15.30;84.80;;;;;;4974612;28;20646;-66
2022/07/17 09:27:26;;;;;;;4.00;1.20;;;15.20;84.80;;;;;;4974137;28;20182;-67
2022/07/17 09:29:54;;;;;;;1.27;1.10;;;15.10;88.20;;;;;;4974182;28;20179;-67
2022/07/17 09:32:23;;;;;;;2.47;1.30;;;14.90;90.20;;;;;;4965144;28;20205;-66
2022/07/17 09:34:52;;;;;;;6.00;1.10;;;14.90;91.90;;;;;;4954715;29;20186;-68
2022/07/17 09:37:23;;;;;;;2.47;1.27;;;14.80;94.50;;;;;;4955064;29;20195;-67
2022/07/17 09:39:53;;;;;;;1.33;1.23;;;14.70;97.30;;;;;;4954559;28;20366;-67
2022/07/17 09:42:33;;;;;;;4.13;1.20;;;14.70;99.00;;;;;;4962867;28;20248;-66
2022/07/17 09:45:10;;;;;;;2.70;1.30;;;14.60;99.90;;;;;;4972127;28;21078;-67
2022/07/17 09:47:39;;;;;;;2.87;1.23;;;14.40;99.90;;;;;;4964915;28;20509;-68
2022/07/17 09:50:08;;;;;;;4.53;1.20;;;14.30;99.90;;;;;;4954461;29;20549;-71
2022/07/17 09:52:38;;;;;;;3.50;1.47;;;14.00;99.90;;;;;;4954483;28;20217;-70
2022/07/17 09:55:06;;;;;;;9.63;1.83;;;13.80;99.90;;;;;;4954765;28;20184;-68
2022/07/17 09:57:35;;;;;;;3.07;1.70;;;13.70;99.90;;;;;;4956631;28;20196;-67
2022/07/17 10:00:07;;;;;;;6.43;1.87;;;13.60;99.90;;;;;;4970523;28;20197;-67
2022/07/17 10:02:35;;;;;;;3.80;1.77;;;13.40;99.90;;;;;;4964918;28;20535;-67
2022/07/17 10:05:03;;;;;;;4.93;2.27;;;13.40;99.90;;;;;;4957928;29;20276;-69
2022/07/17 10:07:32;;;;;;;2.87;2.00;;;13.50;99.90;;;;;;4958155;29;20289;-68
2022/07/17 10:10:00;;;;;;;2.70;1.53;;;13.40;99.90;;;;;;4969710;28;20248;-66
2022/07/17 10:12:28;;;;;;;2.53;1.70;;;13.40;99.90;;;;;;4965483;28;20228;-71
2022/07/17 10:14:56;;;;;;;2.83;2.20;;;13.20;99.90;;;;;;4958591;28;20245;-68
2022/07/17 10:17:23;;;;;;;2.00;1.53;;;13.10;99.90;;;;;;4977193;28;20188;-67
2022/07/17 10:19:55;;;;;;;4.07;1.57;;;13.00;99.90;;;;;;4977249;28;20181;-67
2022/07/17 10:22:24;;;;;;;2.17;1.40;;;12.80;99.90;;;;;;4969352;28;20183;-69
2022/07/17 10:24:56;;;;;;;2.00;1.23;;;12.60;99.90;;;;;;4957720;29;20173;-68
2022/07/17 10:27:29;;;;;;;6.27;1.83;;;12.60;99.90;;;;;;4957721;28;20267;-68
2022/07/17 10:30:11;;;;;;;3.57;1.63;;;12.40;99.90;;;;;;4957441;28;20181;-67
2022/07/17 10:32:39;;;;;;;4.30;1.97;;;12.20;99.90;;;;;;4966185;28;20215;-67
2022/07/17 10:35:11;;;;;;;5.20;2.37;;;12.10;99.90;;;;;;4976836;28;20209;-68
2022/07/17 10:37:40;;;;;;;2.60;1.73;;;12.00;99.90;;;;;;4964054;28;20240;-67
2022/07/17 10:40:22;;;;;;;3.47;2.13;;;12.00;99.90;;;;;;4957520;28;20241;-68
2022/07/17 10:43:06;;;;;;;3.60;2.00;;;11.90;99.90;;;;;;4967649;28;20181;-69
2022/07/17 10:45:39;;;;;;;4.43;2.37;;;11.70;99.90;;;;;;4976742;28;20184;-66
2022/07/17 10:48:11;;;;;;;2.80;1.80;;;11.60;99.90;;;;;;4976700;28;20225;-68
2022/07/17 10:50:50;;;;;;;3.47;2.00;;;11.50;99.90;;;;;;4976088;28;20175;-72
2022/07/17 10:53:26;;;;;;;3.87;2.00;;;11.40;99.90;;;;;;4962120;28;20214;-68
2022/07/17 10:56:06;;;;;;;3.83;2.00;;;11.30;99.90;;;;;;4957045;28;20264;-69
2022/07/17 10:58:39;;;;;;;2.70;1.90;;;11.20;99.90;;;;;;4957193;28;20657;-70
2022/07/17 11:01:15;;;;;;;3.80;1.80;;;11.30;99.90;;;;;;4957126;28;20216;-68
2022/07/17 11:03:47;;;;;;;1.97;1.60;;;11.20;99.90;;;;;;4973796;28;20188;-67
2022/07/17 11:06:18;;;;;;;3.57;1.80;;;11.10;99.90;;;;;;4975571;28;20181;-67
2022/07/17 11:08:57;;;;;;;4.07;2.13;;;11.30;99.90;;;;;;4976219;28;20184;-69
2022/07/17 11:11:47;;;;;;;2.20;1.80;;;11.20;99.90;;;;;;4959057;28;20305;-66
2022/07/17 11:14:20;;;;;;;5.90;2.03;;;11.10;99.90;;;;;;4956598;28;20252;-67
2022/07/17 11:16:56;;;;;;;2.97;1.60;;;10.90;99.90;;;;;;4956541;28;20188;-70
2022/07/17 11:19:31;;;;;;;3.77;1.97;;;10.80;99.90;;;;;;4957565;28;20175;-68
2022/07/17 11:22:01;;;;;;;8.73;2.27;;;10.70;99.90;;;;;;4956548;28;20194;-68
2022/07/17 11:24:46;;;;;;;5.67;2.20;;;10.70;99.90;;;;;;4956754;29;20268;-69
2022/07/17 11:27:21;;;;;;;7.07;3.40;;;10.60;99.90;;;;;;4957731;28;20187;-67
2022/07/17 11:29:51;;;;;;;5.90;3.13;;;10.70;99.90;;;;;;4975600;28;20176;-67
2022/07/17 11:32:19;;;;;;;5.90;2.93;;;10.50;99.90;;;;;;4974523;28;20223;-67
2022/07/17 11:34:48;;;;;;;5.17;3.20;;;10.60;99.90;;;;;;4975962;28;20175;-67
2022/07/17 11:37:16;;;;;;;6.10;2.73;;;10.50;99.90;;;;;;4973631;28;20188;-68
2022/07/17 11:39:49;;;;;;;5.60;2.73;;;10.40;99.90;;;;;;4956151;28;20315;-68
2022/07/17 11:42:20;;;;;;;6.23;3.97;;;10.40;99.90;;;;;;4956241;28;20291;-67
2022/07/17 11:44:54;;;;;;;5.67;3.00;;;10.40;99.90;;;;;;4957344;28;20252;-68
2022/07/17 11:47:26;;;;;;;8.33;3.63;;;10.30;99.90;;;;;;4956397;29;20176;-68
2022/07/17 11:50:13;;;;;;;5.80;2.87;;;10.20;99.90;;;;;;4955877;28;20556;-67
2022/07/17 11:52:48;;;;;;;4.93;2.73;;;10.20;99.90;;;;;;4956018;28;20255;-67
2022/07/17 11:55:16;;;;;;;5.57;2.80;;;10.20;99.90;;;;;;4975489;28;20182;-68
2022/07/17 11:57:49;;;;;;;7.17;3.47;;;10.10;99.90;;;;;;4975778;28;20603;-66
2022/07/17 12:00:19;;;;;;;6.97;3.97;;;10.20;99.90;;;;;;4974574;28;20274;-67
2022/07/17 12:02:58;;;;;;;8.27;4.20;;;10.10;99.90;;;;;;4973544;28;20656;-67
2022/07/17 12:05:30;;;;;;;9.30;4.90;;;10.20;99.90;;;;;;4975476;28;20173;-67
2022/07/17 12:07:57;;;;;;;8.57;4.97;;;10.20;99.90;;;;;;4971835;28;20187;-68
2022/07/17 12:10:29;;;;;;;9.57;4.33;;;10.20;99.90;;;;;;4956953;28;20184;-67
2022/07/17 12:12:59;;;;;;;9.60;4.37;;;10.30;99.90;;;;;;4955848;28;20751;-68
2022/07/17 12:15:36;;;;;;;12.47;4.70;;;10.30;99.90;;;;;;4956800;28;20646;-67
2022/07/17 12:18:05;;;;;;;11.13;4.70;;;10.30;99.90;;;;;;4970183;28;20194;-69
2022/07/17 12:20:48;;;;;;;14.07;5.07;;;10.40;99.90;;;;;;4974766;28;20180;-68
2022/07/17 12:23:35;;;;;;;10.07;4.10;;;10.40;99.90;;;;;;4969836;28;20638;-68
2022/07/17 12:26:19;;;;;;;8.63;4.53;;;10.40;99.90;;;;;;4955940;28;20185;-69
2022/07/17 12:28:47;;;;;;;9.80;4.07;;;10.50;99.90;;;;;;4955712;28;20207;-70
2022/07/17 12:31:15;;;;;;;7.20;4.00;;;10.40;99.90;;;;;;4955472;28;20220;-69
2022/07/17 12:33:43;;;;;;;7.33;3.83;;;10.40;99.90;;;;;;4966381;28;20520;-67
2022/07/17 12:36:10;;;;;;;9.90;4.37;;;10.30;99.90;;;;;;4974725;28;20225;-68
2022/07/17 12:38:39;;;;;;;9.33;4.03;;;10.40;99.90;;;;;;4974466;28;20180;-70
2022/07/17 12:41:06;;;;;;;7.53;4.10;;;10.40;99.90;;;;;;4974454;28;20243;-69
2022/07/17 12:43:34;;;;;;;7.00;2.70;;;10.50;99.90;;;;;;4964641;28;20212;-68
2022/07/17 12:46:02;;;;;;;5.50;3.17;;;10.40;99.90;;;;;;4955539;29;20180;-69
2022/07/17 12:48:30;;;;;;;8.23;3.13;;;10.40;99.90;;;;;;4955223;28;20185;-68
2022/07/17 12:50:58;;;;;;;7.23;3.00;;;10.40;99.90;;;;;;4955224;28;20241;-68
2022/07/17 12:53:25;;;;;;;4.17;2.73;;;10.50;99.90;;;;;;4963417;28;20262;-68
2022/07/17 12:55:53;;;;;;;3.43;2.57;;;10.40;99.90;;;;;;4974734;28;20178;-67